createdAt,value
2019-06-01T00:01:17.690Z,15.02
2019-06-01T00:03:46.497Z,14.98
2019-06-01T00:06:14.170Z,14.94
2019-06-01T00:08:44.993Z,14.92
2019-06-01T00:11:15.726Z,14.91
2019-06-01T00:13:47.692Z,14.83
2019-06-01T00:16:15.346Z,14.83
2019-06-01T00:18:43.995Z,14.78
2019-06-01T00:21:14.824Z,14.72
2019-06-01T00:23:44.943Z,14.64
2019-06-01T00:26:14.671Z,14.58
2019-06-01T00:28:47.895Z,14.52
2019-06-01T00:31:16.777Z,14.45
2019-06-01T00:33:47.320Z,14.38
2019-06-01T00:36:21.254Z,14.32
2019-06-01T00:38:52.052Z,14.26
2019-06-01T00:41:22.488Z,14.20
2019-06-01T00:43:50.579Z,14.18
2019-06-01T00:46:19.474Z,14.10
2019-06-01T00:48:48.173Z,14.06
2019-06-01T00:51:21.489Z,14.06
2019-06-01T00:53:51.894Z,14.03
2019-06-01T00:56:19.986Z,13.96
2019-06-01T00:58:47.887Z,13.95
2019-06-01T01:01:15.850Z,13.95
2019-06-01T01:03:43.961Z,13.93
2019-06-01T01:06:11.800Z,13.90
2019-06-01T01:08:39.396Z,13.89
2019-06-01T01:11:08.893Z,13.87
2019-06-01T01:13:38.491Z,13.84
2019-06-01T01:16:05.980Z,13.82
2019-06-01T01:18:33.611Z,13.77
2019-06-01T01:21:01.624Z,13.75
2019-06-01T01:23:29.579Z,13.75
2019-06-01T01:25:58.583Z,13.70
2019-06-01T01:28:29.254Z,13.70
2019-06-01T01:31:11.703Z,13.67
2019-06-01T01:33:27.855Z,13.62
2019-06-01T01:35:55.823Z,13.59
2019-06-01T01:38:27.354Z,13.59
2019-06-01T01:40:56.169Z,13.55
2019-06-01T01:43:23.901Z,13.50
2019-06-01T01:45:52.739Z,13.50
2019-06-01T01:48:20.357Z,13.50
2019-06-01T01:50:47.913Z,13.51
2019-06-01T01:53:15.642Z,13.50
2019-06-01T01:55:43.723Z,13.49
2019-06-01T01:58:11.591Z,13.47
2019-06-01T02:00:39.769Z,13.45
2019-06-01T02:03:07.364Z,13.43
2019-06-01T02:05:35.474Z,13.41
2019-06-01T02:08:03.270Z,13.36
2019-06-01T02:10:30.927Z,13.32
2019-06-01T02:12:59.633Z,13.28
2019-06-01T02:15:30.675Z,13.30
2019-06-01T02:17:58.295Z,13.29
2019-06-01T02:20:26.269Z,13.28
2019-06-01T02:22:54.703Z,13.27
2019-06-01T02:25:22.851Z,13.27
2019-06-01T02:27:50.629Z,13.26
2019-06-01T02:30:18.384Z,13.21
2019-06-01T02:32:46.248Z,13.21
2019-06-01T02:35:14.518Z,13.18
2019-06-01T02:37:42.382Z,13.15
2019-06-01T02:40:10.183Z,13.11
2019-06-01T02:42:38.525Z,13.11
2019-06-01T02:45:06.398Z,13.11
2019-06-01T02:47:34.150Z,13.09
2019-06-01T02:50:04.254Z,13.06
2019-06-01T02:52:32.154Z,13.06
2019-06-01T02:54:59.962Z,13.01
2019-06-01T02:57:30.855Z,13.01
2019-06-01T02:59:58.718Z,13.00
2019-06-01T03:02:26.995Z,12.95
2019-06-01T03:04:54.864Z,12.91
2019-06-01T03:07:22.734Z,12.86
2019-06-01T03:09:50.584Z,12.83
2019-06-01T03:12:18.874Z,12.80
2019-06-01T03:14:46.734Z,12.79
2019-06-01T03:17:14.599Z,12.79
2019-06-01T03:19:42.325Z,12.82
2019-06-01T03:22:10.386Z,12.82
2019-06-01T03:24:38.251Z,12.84
2019-06-01T03:27:06.580Z,12.84
2019-06-01T03:29:34.371Z,12.82
2019-06-01T03:32:23.940Z,12.80
2019-06-01T03:34:32.117Z,12.79
2019-06-01T03:37:00.986Z,12.77
2019-06-01T03:39:29.326Z,12.77
2019-06-01T03:41:57.151Z,12.77
2019-06-01T03:44:25.028Z,12.77
2019-06-01T03:46:53.301Z,12.77
2019-06-01T03:49:23.226Z,12.77
2019-06-01T03:51:51.179Z,12.77
2019-06-01T03:54:19.560Z,12.81
2019-06-01T03:56:47.431Z,12.81
2019-06-01T03:59:15.186Z,12.84
2019-06-01T04:01:43.062Z,12.86
2019-06-01T04:04:11.544Z,12.91
2019-06-01T04:06:48.372Z,12.96
2019-06-01T04:09:16.130Z,13.12
2019-06-01T04:11:45.987Z,13.12
2019-06-01T04:14:13.854Z,13.30
2019-06-01T04:16:44.713Z,13.30
2019-06-01T04:19:14.411Z,13.40
2019-06-01T04:21:42.278Z,13.48
2019-06-01T04:24:10.268Z,13.57
2019-06-01T04:26:38.628Z,13.66
2019-06-01T04:29:06.624Z,13.76
2019-06-01T04:31:34.346Z,13.97
2019-06-01T04:34:02.488Z,13.97
2019-06-01T04:36:30.779Z,14.16
2019-06-01T04:38:59.655Z,14.16
2019-06-01T04:41:27.380Z,14.24
2019-06-01T04:43:55.147Z,14.30
2019-06-01T04:46:23.300Z,14.39
2019-06-01T04:48:51.089Z,14.47
2019-06-01T04:51:18.946Z,14.58
2019-06-01T04:53:46.796Z,14.79
2019-06-01T04:56:15.317Z,14.79
2019-06-01T04:58:43.253Z,14.95
2019-06-01T05:01:11.001Z,15.14
2019-06-01T05:03:38.873Z,15.47
2019-06-01T05:06:07.278Z,15.47
2019-06-01T05:08:35.013Z,15.59
2019-06-01T05:11:05.228Z,15.70
2019-06-01T05:13:32.903Z,15.79
2019-06-01T05:16:00.619Z,15.88
2019-06-01T05:18:28.949Z,16.01
2019-06-01T05:20:56.813Z,16.01
2019-06-01T05:23:27.620Z,16.06
2019-06-01T05:25:56.194Z,16.18
2019-06-01T05:28:26.145Z,16.18
2019-06-01T05:30:57.288Z,16.29
2019-06-01T05:33:36.985Z,16.42
2019-06-01T05:35:54.670Z,16.68
2019-06-01T05:38:22.971Z,16.81
2019-06-01T05:40:52.002Z,16.81
2019-06-01T05:43:21.308Z,17.01
2019-06-01T05:45:52.363Z,17.08
2019-06-01T05:48:25.082Z,17.08
2019-06-01T05:50:49.558Z,17.21
2019-06-01T05:53:19.763Z,17.21
2019-06-01T05:55:47.691Z,17.31
2019-06-01T05:58:17.121Z,17.44
2019-06-01T06:00:45.098Z,17.62
2019-06-01T06:03:16.215Z,17.80
2019-06-01T06:05:43.792Z,17.97
2019-06-01T06:08:12.725Z,18.09
2019-06-01T06:10:42.839Z,18.27
2019-06-01T06:13:11.135Z,18.41
2019-06-01T06:15:41.182Z,18.57
2019-06-01T06:18:09.350Z,18.73
2019-06-01T06:20:37.101Z,19.09
2019-06-01T06:23:07.296Z,19.09
2019-06-01T06:25:38.302Z,19.24
2019-06-01T06:28:05.346Z,19.35
2019-06-01T06:30:33.141Z,19.48
2019-06-01T06:33:06.185Z,19.70
2019-06-01T06:38:09.658Z,19.82
2019-06-01T06:40:37.380Z,19.93
2019-06-01T06:43:18.639Z,20.21
2019-06-01T06:45:34.979Z,20.21
2019-06-01T06:48:07.369Z,20.35
2019-06-01T06:50:39.532Z,20.49
2019-06-01T06:53:06.299Z,20.72
2019-06-01T06:55:35.403Z,20.72
2019-06-01T06:58:03.660Z,20.82
2019-06-01T07:00:31.712Z,20.89
2019-06-01T07:03:01.845Z,21.06
2019-06-01T07:05:31.805Z,21.06
2019-06-01T07:07:59.806Z,21.18
2019-06-01T07:10:28.332Z,21.31
2019-06-01T07:12:56.137Z,21.45
2019-06-01T07:15:25.447Z,21.56
2019-06-01T07:17:53.240Z,21.72
2019-06-01T07:20:21.528Z,21.76
2019-06-01T07:22:49.690Z,21.83
2019-06-01T07:25:17.567Z,21.88
2019-06-01T07:27:45.260Z,21.92
2019-06-01T07:30:14.579Z,21.93
2019-06-01T07:32:42.344Z,21.97
2019-06-01T07:35:10.088Z,22.03
2019-06-01T07:37:40.971Z,22.08
2019-06-01T07:40:13.164Z,22.10
2019-06-01T07:42:38.365Z,22.20
2019-06-01T07:45:07.712Z,22.25
2019-06-01T07:47:36.716Z,22.33
2019-06-01T07:50:05.529Z,22.42
2019-06-01T07:52:36.792Z,22.49
2019-06-01T07:55:04.494Z,22.57
2019-06-01T07:57:32.269Z,22.62
2019-06-01T08:00:01.815Z,22.70
2019-06-01T08:02:30.766Z,22.79
2019-06-01T08:05:00.338Z,22.79
2019-06-01T08:07:29.242Z,22.79
2019-06-01T08:09:57.138Z,22.87
2019-06-01T08:12:29.874Z,22.87
2019-06-01T08:14:58.060Z,23.01
2019-06-01T08:17:26.089Z,23.05
2019-06-01T08:19:56.873Z,23.05
2019-06-01T08:22:25.970Z,23.10
2019-06-01T08:24:53.802Z,23.19
2019-06-01T08:27:22.420Z,23.31
2019-06-01T08:29:55.929Z,23.40
2019-06-01T08:32:24.534Z,23.49
2019-06-01T08:35:07.109Z,23.59
2019-06-01T08:37:23.522Z,23.66
2019-06-01T08:39:53.528Z,23.78
2019-06-01T08:42:21.299Z,23.94
2019-06-01T08:44:49.519Z,24.08
2019-06-01T08:47:17.301Z,24.17
2019-06-01T08:49:47.392Z,24.20
2019-06-01T08:52:17.584Z,24.45
2019-06-01T08:54:45.321Z,24.45
2019-06-01T08:57:14.213Z,24.55
2019-06-01T08:59:43.299Z,24.66
2019-06-01T09:02:11.111Z,24.76
2019-06-01T09:04:38.983Z,24.86
2019-06-01T09:07:07.195Z,24.91
2019-06-01T09:09:35.216Z,24.91
2019-06-01T09:12:05.370Z,24.89
2019-06-01T09:14:35.635Z,24.86
2019-06-01T09:17:03.451Z,24.91
2019-06-01T09:19:34.223Z,25.05
2019-06-01T09:22:07.507Z,25.38
2019-06-01T09:24:37.954Z,25.38
2019-06-01T09:27:08.581Z,25.52
2019-06-01T09:29:44.791Z,25.69
2019-06-01T09:34:52.520Z,25.94
2019-06-01T09:37:23.180Z,25.93
2019-06-01T09:39:50.889Z,25.80
2019-06-01T09:42:18.690Z,25.72
2019-06-01T09:44:46.825Z,25.66
2019-06-01T09:47:14.965Z,25.58
2019-06-01T09:49:42.684Z,25.62
2019-06-01T09:52:12.453Z,25.62
2019-06-01T09:54:40.277Z,25.62
2019-06-01T09:57:10.395Z,25.67
2019-06-01T09:59:38.267Z,25.93
2019-06-01T10:02:06.399Z,26.24
2019-06-01T10:04:34.457Z,26.48
2019-06-01T10:07:10.291Z,26.78
2019-06-01T10:09:38.366Z,27.14
2019-06-01T10:12:06.189Z,27.40
2019-06-01T10:14:39.395Z,27.65
2019-06-01T10:17:10.428Z,27.96
2019-06-01T10:19:38.876Z,28.26
2019-06-01T10:22:11.166Z,28.54
2019-06-01T10:24:42.188Z,28.71
2019-06-01T10:27:12.011Z,29.33
2019-06-01T10:29:40.128Z,29.33
2019-06-01T10:32:16.745Z,29.52
2019-06-01T10:34:44.856Z,29.98
2019-06-01T10:37:12.921Z,29.98
2019-06-01T10:39:41.413Z,30.58
2019-06-01T10:42:09.190Z,30.58
2019-06-01T10:44:41.775Z,30.68
2019-06-01T10:47:08.574Z,30.82
2019-06-01T10:49:38.525Z,30.93
2019-06-01T10:52:07.012Z,31.22
2019-06-01T10:54:36.030Z,31.51
2019-06-01T10:57:03.847Z,31.80
2019-06-01T10:59:32.252Z,32.01
2019-06-01T11:02:00.035Z,32.15
2019-06-01T11:04:27.840Z,32.28
2019-06-01T11:06:55.940Z,32.45
2019-06-01T11:09:23.790Z,32.65
2019-06-01T11:11:51.588Z,32.85
2019-06-01T11:14:19.783Z,32.95
2019-06-01T11:16:52.698Z,33.13
2019-06-01T11:19:19.802Z,33.21
2019-06-01T11:22:06.581Z,33.36
2019-06-01T11:24:37.188Z,33.51
2019-06-01T11:27:07.412Z,33.71
2019-06-01T11:29:41.185Z,33.86
2019-06-01T11:32:04.648Z,34.10
2019-06-01T11:34:33.896Z,34.16
2019-06-01T11:37:05.471Z,33.96
2019-06-01T11:39:31.181Z,33.98
2019-06-01T11:41:59.359Z,33.96
2019-06-01T11:44:27.164Z,34.13
2019-06-01T11:46:55.022Z,34.12
2019-06-01T11:49:25.907Z,34.22
2019-06-01T11:51:56.135Z,34.44
2019-06-01T11:54:27.201Z,34.54
2019-06-01T11:56:56.889Z,34.65
2019-06-01T11:59:24.638Z,34.69
2019-06-01T12:01:55.373Z,34.72
2019-06-01T12:04:25.180Z,34.90
2019-06-01T12:07:13.483Z,35.10
2019-06-01T12:09:25.250Z,35.21
2019-06-01T12:11:57.799Z,35.22
2019-06-01T12:14:25.589Z,35.06
2019-06-01T12:16:53.380Z,35.00
2019-06-01T12:19:21.478Z,34.95
2019-06-01T12:21:49.230Z,34.95
2019-06-01T12:24:18.373Z,35.15
2019-06-01T12:26:47.507Z,35.35
2019-06-01T12:29:17.372Z,35.53
2019-06-01T12:31:46.534Z,35.52
2019-06-01T12:34:14.801Z,35.33
2019-06-01T12:36:42.752Z,35.25
2019-06-01T12:39:12.841Z,35.40
2019-06-01T12:41:45.516Z,35.66
2019-06-01T12:44:15.844Z,35.76
2019-06-01T12:46:46.970Z,35.93
2019-06-01T12:49:14.945Z,35.91
2019-06-01T12:51:42.747Z,35.79
2019-06-01T12:54:10.865Z,35.73
2019-06-01T12:56:38.658Z,35.81
2019-06-01T12:59:22.720Z,35.66
2019-06-01T13:01:51.375Z,35.69
2019-06-01T13:04:19.152Z,35.65
2019-06-01T13:06:51.108Z,35.75
2019-06-01T13:09:21.056Z,35.80
2019-06-01T13:11:54.626Z,35.90
2019-06-01T13:14:25.120Z,36.20
2019-06-01T13:17:06.319Z,36.49
2019-06-01T13:19:22.740Z,36.63
2019-06-01T13:21:51.679Z,36.72
2019-06-01T13:24:19.544Z,36.69
2019-06-01T13:26:47.854Z,36.50
2019-06-01T13:29:15.751Z,36.33
2019-06-01T13:31:44.333Z,36.26
2019-06-01T13:34:15.435Z,36.48
2019-06-01T13:36:46.449Z,36.84
2019-06-01T13:39:17.388Z,37.09
2019-06-01T13:41:47.033Z,37.31
2019-06-01T13:44:14.930Z,37.48
2019-06-01T13:46:43.454Z,37.31
2019-06-01T13:49:14.464Z,37.13
2019-06-01T13:51:44.023Z,36.94
2019-06-01T13:54:11.849Z,36.93
2019-06-01T13:56:46.758Z,36.78
2019-06-01T13:59:16.037Z,36.51
2019-06-01T14:01:45.085Z,36.63
2019-06-01T14:04:13.327Z,37.11
2019-06-01T14:06:43.225Z,37.48
2019-06-01T14:09:13.739Z,37.77
2019-06-01T14:11:43.419Z,37.88
2019-06-01T14:14:13.885Z,37.95
2019-06-01T14:16:45.362Z,38.10
2019-06-01T14:19:13.761Z,38.23
2019-06-01T14:21:41.482Z,38.05
2019-06-01T14:24:09.279Z,38.02
2019-06-01T14:26:37.429Z,38.03
2019-06-01T14:29:07.475Z,37.86
2019-06-01T14:31:35.206Z,37.80
2019-06-01T14:34:07.370Z,37.82
2019-06-01T14:36:40.869Z,37.75
2019-06-01T14:39:08.548Z,37.50
2019-06-01T14:41:42.816Z,37.51
2019-06-01T14:44:10.542Z,37.53
2019-06-01T14:46:53.653Z,37.69
2019-06-01T14:49:11.238Z,37.48
2019-06-01T14:51:40.128Z,37.66
2019-06-01T14:54:07.838Z,37.78
2019-06-01T14:56:36.108Z,37.79
2019-06-01T14:59:08.698Z,37.94
2019-06-01T15:01:39.078Z,38.22
2019-06-01T15:04:10.197Z,38.15
2019-06-01T15:06:45.188Z,38.01
2019-06-01T15:09:23.221Z,38.09
2019-06-01T15:11:42.720Z,38.47
2019-06-01T15:14:10.431Z,38.85
2019-06-01T15:16:41.807Z,38.89
2019-06-01T15:19:12.834Z,38.89
2019-06-01T15:21:40.706Z,38.91
2019-06-01T15:24:11.255Z,38.96
2019-06-01T15:26:39.336Z,38.79
2019-06-01T15:29:07.313Z,38.42
2019-06-01T15:31:36.486Z,38.27
2019-06-01T15:34:08.080Z,38.01
2019-06-01T15:36:35.561Z,37.75
2019-06-01T15:39:03.305Z,37.61
2019-06-01T15:41:33.026Z,37.37
2019-06-01T15:44:02.386Z,37.60
2019-06-01T15:46:31.957Z,37.60
2019-06-01T15:49:05.873Z,37.73
2019-06-01T15:51:36.315Z,38.05
2019-06-01T15:54:04.045Z,38.32
2019-06-01T15:56:32.152Z,38.30
2019-06-01T15:59:02.884Z,37.93
2019-06-01T16:01:33.145Z,37.93
2019-06-01T16:04:01.413Z,37.91
2019-06-01T16:06:32.263Z,37.87
2019-06-01T16:08:59.967Z,37.64
2019-06-01T16:11:28.241Z,37.17
2019-06-01T16:13:59.622Z,36.77
2019-06-01T16:16:28.012Z,36.42
2019-06-01T16:19:04.864Z,36.28
2019-06-01T16:21:45.114Z,36.15
2019-06-01T16:24:00.486Z,35.62
2019-06-01T16:26:28.764Z,34.66
2019-06-01T16:28:58.472Z,33.66
2019-06-01T16:31:27.848Z,32.83
2019-06-01T16:33:56.577Z,32.09
2019-06-01T16:36:24.765Z,31.50
2019-06-01T16:38:52.498Z,30.98
2019-06-01T16:41:20.651Z,30.55
2019-06-01T16:43:52.643Z,30.24
2019-06-01T16:46:39.179Z,30.09
2019-06-01T16:49:09.234Z,30.36
2019-06-01T16:51:36.956Z,30.91
2019-06-01T16:54:06.723Z,31.10
2019-06-01T16:56:34.426Z,30.85
2019-06-01T16:59:02.369Z,30.41
2019-06-01T17:01:34.368Z,30.03
2019-06-01T17:04:06.688Z,29.25
2019-06-01T17:06:34.683Z,29.25
2019-06-01T17:09:03.769Z,28.89
2019-06-01T17:11:32.122Z,28.61
2019-06-01T17:14:00.787Z,28.33
2019-06-01T17:16:33.207Z,28.11
2019-06-01T17:19:01.325Z,27.94
2019-06-01T17:21:29.396Z,27.77
2019-06-01T17:23:57.436Z,27.63
2019-06-01T17:26:25.230Z,27.51
2019-06-01T17:28:53.497Z,27.40
2019-06-01T17:31:21.216Z,27.30
2019-06-01T17:33:52.014Z,27.20
2019-06-01T17:36:20.176Z,27.11
2019-06-01T17:38:47.944Z,27.03
2019-06-01T17:41:15.706Z,26.94
2019-06-01T17:43:43.911Z,26.87
2019-06-01T17:46:12.067Z,26.78
2019-06-01T17:48:42.842Z,26.71
2019-06-01T17:51:13.482Z,26.65
2019-06-01T17:53:41.269Z,26.60
2019-06-01T17:56:12.182Z,26.53
2019-06-01T17:58:41.875Z,26.46
2019-06-01T18:01:09.973Z,26.39
2019-06-01T18:03:37.805Z,26.34
2019-06-01T18:06:06.016Z,26.26
2019-06-01T18:08:33.725Z,26.18
2019-06-01T18:11:01.988Z,26.11
2019-06-01T18:13:31.718Z,26.04
2019-06-01T18:15:59.486Z,25.95
2019-06-01T18:18:27.205Z,25.89
2019-06-01T18:20:56.603Z,25.83
2019-06-01T18:23:27.211Z,25.76
2019-06-01T18:25:54.946Z,25.67
2019-06-01T18:28:23.247Z,25.57
2019-06-01T18:30:51.029Z,25.47
2019-06-01T18:33:19.204Z,25.37
2019-06-01T18:35:48.889Z,25.10
2019-06-01T18:38:16.686Z,25.10
2019-06-01T18:40:51.472Z,24.95
2019-06-01T18:43:19.596Z,24.79
2019-06-01T18:45:50.332Z,24.62
2019-06-01T18:48:18.409Z,24.46
2019-06-01T18:50:46.694Z,24.31
2019-06-01T18:53:16.078Z,24.18
2019-06-01T18:55:43.814Z,24.04
2019-06-01T18:58:12.557Z,23.91
2019-06-01T19:00:40.390Z,23.67
2019-06-01T19:03:09.022Z,23.67
2019-06-01T19:05:37.362Z,23.56
2019-06-01T19:08:05.570Z,23.42
2019-06-01T19:10:42.554Z,23.32
2019-06-01T19:13:11.713Z,23.23
2019-06-01T19:15:41.203Z,23.13
2019-06-01T19:18:10.340Z,23.05
2019-06-01T19:20:40.898Z,22.94
2019-06-01T19:23:08.791Z,22.74
2019-06-01T19:25:38.155Z,22.59
2019-06-01T19:28:08.855Z,22.59
2019-06-01T19:30:49.231Z,22.33
2019-06-01T19:33:14.197Z,22.33
2019-06-01T19:35:40.668Z,22.22
2019-06-01T19:38:09.108Z,22.14
2019-06-01T19:40:38.369Z,22.05
2019-06-01T19:43:09.412Z,21.95
2019-06-01T19:45:47.355Z,21.88
2019-06-01T19:48:16.516Z,21.79
2019-06-01T19:50:44.539Z,21.69
2019-06-01T19:53:14.809Z,21.62
2019-06-01T19:55:42.714Z,21.55
2019-06-01T19:58:11.961Z,21.43
2019-06-01T20:00:40.227Z,21.43
2019-06-01T20:03:08.034Z,21.37
2019-06-01T20:05:35.773Z,21.31
2019-06-01T20:08:06.581Z,21.19
2019-06-01T20:10:34.356Z,21.19
2019-06-01T20:13:05.144Z,21.10
2019-06-01T20:15:37.387Z,20.77
2019-06-01T20:18:25.542Z,20.64
2019-06-01T20:20:56.461Z,20.64
2019-06-01T20:23:24.243Z,20.55
2019-06-01T20:25:53.321Z,20.47
2019-06-01T20:28:21.762Z,20.43
2019-06-01T20:30:49.574Z,20.39
2019-06-01T20:33:18.302Z,20.34
2019-06-01T20:35:48.152Z,20.28
2019-06-01T20:38:16.605Z,20.23
2019-06-01T20:40:48.314Z,20.23
2019-06-01T20:43:20.835Z,20.18
2019-06-01T20:45:49.716Z,20.05
2019-06-01T20:48:18.826Z,20.05
2019-06-01T20:50:46.862Z,19.95
2019-06-01T20:53:14.908Z,19.88
2019-06-01T20:55:43.196Z,19.88
2019-06-01T20:58:11.005Z,19.81
2019-06-01T21:00:38.845Z,19.73
2019-06-01T21:03:17.714Z,19.64
2019-06-01T21:05:37.757Z,19.55
2019-06-01T21:08:06.344Z,19.46
2019-06-01T21:10:34.568Z,19.28
2019-06-01T21:13:07.780Z,19.18
2019-06-01T21:15:35.775Z,19.18
2019-06-01T21:18:05.440Z,19.08
2019-06-01T21:20:36.036Z,19.00
2019-06-01T21:23:06.989Z,18.98
2019-06-01T21:25:34.766Z,18.93
2019-06-01T21:28:02.569Z,18.89
2019-06-01T21:30:30.771Z,18.80
2019-06-01T21:33:00.221Z,18.80
2019-06-01T21:35:30.547Z,18.74
2019-06-01T21:37:58.612Z,18.69
2019-06-01T21:40:32.375Z,18.64
2019-06-01T21:43:07.312Z,18.59
2019-06-01T21:45:30.045Z,18.54
2019-06-01T21:47:57.851Z,18.50
2019-06-01T21:50:27.242Z,18.46
2019-06-01T21:52:55.507Z,18.43
2019-06-01T21:55:24.463Z,18.43
2019-06-01T21:57:52.677Z,18.42
2019-06-01T22:00:22.628Z,18.38
2019-06-01T22:02:50.399Z,18.38
2019-06-01T22:05:18.665Z,18.35
2019-06-01T22:07:48.618Z,18.28
2019-06-01T22:10:17.075Z,18.24
2019-06-01T22:12:47.479Z,18.20
2019-06-01T22:15:19.441Z,18.20
2019-06-01T22:17:51.514Z,18.15
2019-06-01T22:20:28.624Z,18.14
2019-06-01T22:22:59.351Z,18.08
2019-06-01T22:25:31.431Z,18.08
2019-06-01T22:27:56.739Z,18.05
2019-06-01T22:30:24.825Z,18.02
2019-06-01T22:32:55.233Z,17.99
2019-06-01T22:35:24.649Z,17.97
2019-06-01T22:37:52.483Z,17.95
2019-06-01T22:40:20.875Z,17.93
2019-06-01T22:42:51.639Z,17.91
2019-06-01T22:45:22.458Z,17.89
2019-06-01T22:47:50.263Z,17.89
2019-06-01T22:50:18.303Z,17.88
2019-06-01T22:52:46.418Z,17.90
2019-06-01T22:55:14.605Z,17.89
2019-06-01T22:57:43.360Z,17.89
2019-06-01T23:00:15.889Z,17.88
2019-06-01T23:02:47.004Z,17.88
2019-06-01T23:05:14.810Z,17.88
2019-06-01T23:07:44.426Z,17.86
2019-06-01T23:10:12.644Z,17.85
2019-06-01T23:12:40.413Z,17.83
2019-06-01T23:15:08.434Z,17.82
2019-06-01T23:17:38.150Z,17.80
2019-06-01T23:20:06.012Z,17.78
2019-06-01T23:22:33.890Z,17.76
2019-06-01T23:25:02.154Z,17.73
2019-06-01T23:27:31.091Z,17.70
2019-06-01T23:29:59.231Z,17.67
2019-06-01T23:32:28.497Z,17.63
2019-06-01T23:35:06.146Z,17.58
2019-06-01T23:37:36.830Z,17.55
2019-06-01T23:40:04.728Z,17.50
2019-06-01T23:42:32.933Z,17.49
2019-06-01T23:45:01.283Z,17.43
2019-06-01T23:47:29.390Z,17.39
2019-06-01T23:49:58.443Z,17.28
2019-06-01T23:52:27.437Z,17.28
2019-06-01T23:54:57.708Z,17.24
2019-06-01T23:57:25.744Z,17.18
2019-06-01T23:59:53.520Z,17.15
